This is the latest recevied weather packets stored in our database for station/object YN1ZGS-13. If no packets are shown the sender has not sent any weather packets the latest 1 day(s).
| Time | Temp. | Humidity | Pressure | Rain* | Wind** | Luminosity | Snow |
|---|---|---|---|---|---|---|---|
| 1778086385 | 31.67° C | 49% | 1012 hPa | 0 mm | - | - | - |
| 1778084584 | 31.67° C | 52% | 1012 hPa | 0 mm | - | - | - |
| 1778082183 | 30.56° C | 58% | 1012 hPa | 0 mm | - | - | - |
| 1778080982 | 28.89° C | 58% | 1013 hPa | 0 mm | - | - | - |
| 1778079181 | 30° C | 58% | 1013 hPa | 0 mm | - | - | - |
| 1778077380 | 27.78° C | 70% | 1012 hPa | 0 mm | - | - | - |
| 1778075579 | 27.22° C | 70% | 1012 hPa | 0 mm | - | - | - |
| 1778073778 | 28.33° C | 70% | 1012 hPa | 0 mm | - | - | - |
| 1778071377 | 24.44° C | 76% | 1012 hPa | 0 mm | - | - | - |
| 1778070176 | 24.44° C | 75% | 1012 hPa | 0 mm | - | - | - |
| 1778069576 | 24.44° C | 73% | 1012 hPa | 0 mm | - | - | - |
| 1778066574 | 25° C | 73% | 1011 hPa | 0 mm | - | - | - |
| 1778065974 | 25° C | 72% | 1011 hPa | 0 mm | - | - | - |
| 1778064173 | 25.56° C | 72% | 1011 hPa | 0 mm | - | - | - |
| 1778062372 | 25° C | 71% | 1011 hPa | 0 mm | - | - | - |
| 1778061171 | 26.11° C | 71% | 1011 hPa | 0 mm | - | - | - |
| 1778060571 | 26.11° C | 70% | 1011 hPa | 0 mm | - | - | - |
| 1778059970 | 26.11° C | 70% | 1011 hPa | 0 mm | - | - | - |
| 1778058769 | 26.67° C | 70% | 1011 hPa | 0 mm | - | - | - |
| 1778058169 | 27.22° C | 70% | 1011 hPa | 0 mm | - | - | - |
| 1778056368 | 25° C | 71% | 1011 hPa | 0 mm | - | - | - |
| 1778055167 | 25° C | 71% | 1011 hPa | 0 mm | - | - | - |
| 1778054567 | 24.44° C | 71% | 1011 hPa | 0 mm | - | - | - |
| 1778053366 | 24.44° C | 72% | 1011 hPa | 0 mm | - | - | - |
| 1778052766 | 25° C | 72% | 1011 hPa | 0 mm | - | - | - |
* Rain latest hour (hover to see other rain measurements)
** Current wind speed in m/s (hover to see current wind gust speed)